sensor_id;sensor_type;location;lat;lon;timestamp;temperature;humidity
38209;DHT22;24016;52.102;11.584;2023-10-19T00:00:31;5.80;99.90
38209;DHT22;24016;52.102;11.584;2023-10-19T00:02:59;5.90;99.90
38209;DHT22;24016;52.102;11.584;2023-10-19T00:05:30;6.00;99.90
38209;DHT22;24016;52.102;11.584;2023-10-19T00:07:58;6.00;99.90
38209;DHT22;24016;52.102;11.584;2023-10-19T00:10:25;6.10;99.90
38209;DHT22;24016;52.102;11.584;2023-10-19T00:12:54;6.20;99.90
38209;DHT22;24016;52.102;11.584;2023-10-19T00:15:30;6.20;99.90
38209;DHT22;24016;52.102;11.584;2023-10-19T00:17:58;6.30;99.90
38209;DHT22;24016;52.102;11.584;2023-10-19T00:20:31;6.30;99.90
38209;DHT22;24016;52.102;11.584;2023-10-19T00:23:15;6.30;99.90
38209;DHT22;24016;52.102;11.584;2023-10-19T00:25:47;6.40;99.90
38209;DHT22;24016;52.102;11.584;2023-10-19T00:28:20;6.40;99.90
38209;DHT22;24016;52.102;11.584;2023-10-19T00:30:47;6.40;99.90
38209;DHT22;24016;52.102;11.584;2023-10-19T00:33:15;6.40;99.90
38209;DHT22;24016;52.102;11.584;2023-10-19T00:35:46;6.40;99.90
38209;DHT22;24016;52.102;11.584;2023-10-19T00:38:30;6.40;99.90
38209;DHT22;24016;52.102;11.584;2023-10-19T00:40:58;6.50;99.90
38209;DHT22;24016;52.102;11.584;2023-10-19T00:43:29;6.50;99.90
38209;DHT22;24016;52.102;11.584;2023-10-19T00:45:59;6.50;99.90
38209;DHT22;24016;52.102;11.584;2023-10-19T00:48:27;6.50;99.90
38209;DHT22;24016;52.102;11.584;2023-10-19T00:50:54;6.50;99.90
38209;DHT22;24016;52.102;11.584;2023-10-19T00:53:36;6.60;99.90
38209;DHT22;24016;52.102;11.584;2023-10-19T00:56:03;6.60;99.90
38209;DHT22;24016;52.102;11.584;2023-10-19T00:58:32;6.60;99.90
38209;DHT22;24016;52.102;11.584;2023-10-19T01:01:02;6.60;99.90
38209;DHT22;24016;52.102;11.584;2023-10-19T01:03:31;6.50;99.90
38209;DHT22;24016;52.102;11.584;2023-10-19T01:06:05;6.50;99.90
38209;DHT22;24016;52.102;11.584;2023-10-19T01:08:38;6.50;99.90
38209;DHT22;24016;52.102;11.584;2023-10-19T01:11:10;6.50;99.90
38209;DHT22;24016;52.102;11.584;2023-10-19T01:13:40;6.50;99.90
38209;DHT22;24016;52.102;11.584;2023-10-19T01:16:13;6.40;99.90
38209;DHT22;24016;52.102;11.584;2023-10-19T01:18:54;6.40;99.90
38209;DHT22;24016;52.102;11.584;2023-10-19T01:21:22;6.40;99.90
38209;DHT22;24016;52.102;11.584;2023-10-19T01:23:50;6.40;99.90
38209;DHT22;24016;52.102;11.584;2023-10-19T01:26:16;6.40;99.90
38209;DHT22;24016;52.102;11.584;2023-10-19T01:28:52;6.30;99.90
38209;DHT22;24016;52.102;11.584;2023-10-19T01:31:24;6.30;99.90
38209;DHT22;24016;52.102;11.584;2023-10-19T01:33:56;6.30;99.90
38209;DHT22;24016;52.102;11.584;2023-10-19T01:36:23;6.20;99.90
38209;DHT22;24016;52.102;11.584;2023-10-19T01:38:49;6.20;99.90
38209;DHT22;24016;52.102;11.584;2023-10-19T01:41:15;6.20;99.90
38209;DHT22;24016;52.102;11.584;2023-10-19T01:43:48;6.20;99.90
38209;DHT22;24016;52.102;11.584;2023-10-19T01:46:15;6.20;99.90
38209;DHT22;24016;52.102;11.584;2023-10-19T01:48:48;6.20;99.90
38209;DHT22;24016;52.102;11.584;2023-10-19T01:51:20;6.20;99.90
38209;DHT22;24016;52.102;11.584;2023-10-19T01:53:46;6.20;99.90
38209;DHT22;24016;52.102;11.584;2023-10-19T01:56:14;6.20;99.90
38209;DHT22;24016;52.102;11.584;2023-10-19T01:58:41;6.10;99.90
38209;DHT22;24016;52.102;11.584;2023-10-19T02:01:08;6.10;99.90
38209;DHT22;24016;52.102;11.584;2023-10-19T02:03:40;6.10;99.90
38209;DHT22;24016;52.102;11.584;2023-10-19T02:06:12;6.10;99.90
38209;DHT22;24016;52.102;11.584;2023-10-19T02:08:54;6.10;99.90
38209;DHT22;24016;52.102;11.584;2023-10-19T02:11:26;6.10;99.90
38209;DHT22;24016;52.102;11.584;2023-10-19T02:13:53;6.10;99.90
38209;DHT22;24016;52.102;11.584;2023-10-19T02:16:20;6.10;99.90
38209;DHT22;24016;52.102;11.584;2023-10-19T02:18:50;6.10;99.90
38209;DHT22;24016;52.102;11.584;2023-10-19T02:21:16;6.10;99.90
38209;DHT22;24016;52.102;11.584;2023-10-19T02:23:50;6.00;99.90
38209;DHT22;24016;52.102;11.584;2023-10-19T02:26:22;6.00;99.90
38209;DHT22;24016;52.102;11.584;2023-10-19T02:28:56;5.90;99.90
38209;DHT22;24016;52.102;11.584;2023-10-19T02:31:22;5.90;99.90
38209;DHT22;24016;52.102;11.584;2023-10-19T02:36:19;5.90;99.90
38209;DHT22;24016;52.102;11.584;2023-10-19T02:38:46;5.90;99.90
38209;DHT22;24016;52.102;11.584;2023-10-19T02:41:18;5.90;99.90
38209;DHT22;24016;52.102;11.584;2023-10-19T02:43:45;5.90;99.90
38209;DHT22;24016;52.102;11.584;2023-10-19T02:46:17;5.90;99.90
38209;DHT22;24016;52.102;11.584;2023-10-19T02:48:43;5.90;99.90
38209;DHT22;24016;52.102;11.584;2023-10-19T02:51:15;5.90;99.90
38209;DHT22;24016;52.102;11.584;2023-10-19T02:53:41;5.90;99.90
38209;DHT22;24016;52.102;11.584;2023-10-19T02:56:15;5.90;99.90
38209;DHT22;24016;52.102;11.584;2023-10-19T02:58:49;5.90;99.90
38209;DHT22;24016;52.102;11.584;2023-10-19T03:01:19;5.90;99.90
38209;DHT22;24016;52.102;11.584;2023-10-19T03:03:53;5.90;99.90
38209;DHT22;24016;52.102;11.584;2023-10-19T03:06:21;5.90;99.90
38209;DHT22;24016;52.102;11.584;2023-10-19T03:08:48;5.90;99.90
38209;DHT22;24016;52.102;11.584;2023-10-19T03:11:23;5.90;99.90
38209;DHT22;24016;52.102;11.584;2023-10-19T03:13:49;5.90;99.90
38209;DHT22;24016;52.102;11.584;2023-10-19T03:16:16;5.90;99.90
38209;DHT22;24016;52.102;11.584;2023-10-19T03:18:43;5.90;99.90
38209;DHT22;24016;52.102;11.584;2023-10-19T03:21:08;5.90;99.90
38209;DHT22;24016;52.102;11.584;2023-10-19T03:23:36;5.90;99.90
38209;DHT22;24016;52.102;11.584;2023-10-19T03:26:03;5.90;99.90
38209;DHT22;24016;52.102;11.584;2023-10-19T03:28:47;5.80;99.90
38209;DHT22;24016;52.102;11.584;2023-10-19T03:31:13;5.90;99.90
38209;DHT22;24016;52.102;11.584;2023-10-19T03:33:44;5.90;99.90
38209;DHT22;24016;52.102;11.584;2023-10-19T03:36:09;5.90;99.90
38209;DHT22;24016;52.102;11.584;2023-10-19T03:38:39;5.80;99.90
38209;DHT22;24016;52.102;11.584;2023-10-19T03:41:06;5.80;99.90
38209;DHT22;24016;52.102;11.584;2023-10-19T03:43:36;5.80;99.90
38209;DHT22;24016;52.102;11.584;2023-10-19T03:46:06;5.70;99.90
38209;DHT22;24016;52.102;11.584;2023-10-19T03:48:44;5.70;99.90
38209;DHT22;24016;52.102;11.584;2023-10-19T03:51:12;5.70;99.90
38209;DHT22;24016;52.102;11.584;2023-10-19T03:53:39;5.70;99.90
38209;DHT22;24016;52.102;11.584;2023-10-19T03:56:09;5.70;99.90
38209;DHT22;24016;52.102;11.584;2023-10-19T03:58:37;5.70;99.90
38209;DHT22;24016;52.102;11.584;2023-10-19T04:01:04;5.70;99.90
38209;DHT22;24016;52.102;11.584;2023-10-19T04:03:30;5.70;99.90
38209;DHT22;24016;52.102;11.584;2023-10-19T04:05:56;5.70;99.90
38209;DHT22;24016;52.102;11.584;2023-10-19T04:08:26;5.70;99.90
38209;DHT22;24016;52.102;11.584;2023-10-19T04:10:52;5.70;99.90
38209;DHT22;24016;52.102;11.584;2023-10-19T04:13:37;5.60;99.90
38209;DHT22;24016;52.102;11.584;2023-10-19T04:16:03;5.60;99.90
38209;DHT22;24016;52.102;11.584;2023-10-19T04:18:33;5.60;99.90
38209;DHT22;24016;52.102;11.584;2023-10-19T04:21:00;5.60;99.90
38209;DHT22;24016;52.102;11.584;2023-10-19T04:23:28;5.70;99.90
38209;DHT22;24016;52.102;11.584;2023-10-19T04:25:55;5.60;99.90
38209;DHT22;24016;52.102;11.584;2023-10-19T04:28:24;5.60;99.90
38209;DHT22;24016;52.102;11.584;2023-10-19T04:31:18;5.60;99.90
38209;DHT22;24016;52.102;11.584;2023-10-19T04:33:45;5.70;99.90
38209;DHT22;24016;52.102;11.584;2023-10-19T04:36:15;5.70;99.90
38209;DHT22;24016;52.102;11.584;2023-10-19T04:38:41;5.70;99.90
38209;DHT22;24016;52.102;11.584;2023-10-19T04:41:08;5.60;99.90
38209;DHT22;24016;52.102;11.584;2023-10-19T04:43:35;5.60;99.90
38209;DHT22;24016;52.102;11.584;2023-10-19T04:46:06;5.70;99.90
38209;DHT22;24016;52.102;11.584;2023-10-19T04:48:34;5.60;99.90
38209;DHT22;24016;52.102;11.584;2023-10-19T04:51:01;5.60;99.90
38209;DHT22;24016;52.102;11.584;2023-10-19T04:53:27;5.60;99.90
38209;DHT22;24016;52.102;11.584;2023-10-19T04:55:52;5.70;99.90
38209;DHT22;24016;52.102;11.584;2023-10-19T04:58:18;5.60;99.90
38209;DHT22;24016;52.102;11.584;2023-10-19T05:00:44;5.70;99.90
38209;DHT22;24016;52.102;11.584;2023-10-19T05:03:09;5.60;99.90
38209;DHT22;24016;52.102;11.584;2023-10-19T05:05:35;5.60;99.90
38209;DHT22;24016;52.102;11.584;2023-10-19T05:08:01;5.60;99.90
38209;DHT22;24016;52.102;11.584;2023-10-19T05:10:26;5.60;99.90
38209;DHT22;24016;52.102;11.584;2023-10-19T05:12:52;5.60;99.90
38209;DHT22;24016;52.102;11.584;2023-10-19T05:15:20;5.60;99.90
38209;DHT22;24016;52.102;11.584;2023-10-19T05:17:45;5.60;99.90
38209;DHT22;24016;52.102;11.584;2023-10-19T05:20:11;5.60;99.90
38209;DHT22;24016;52.102;11.584;2023-10-19T05:22:37;5.60;99.90
38209;DHT22;24016;52.102;11.584;2023-10-19T05:25:02;5.60;99.90
38209;DHT22;24016;52.102;11.584;2023-10-19T05:27:29;5.60;99.90
38209;DHT22;24016;52.102;11.584;2023-10-19T05:29:54;5.60;99.90
38209;DHT22;24016;52.102;11.584;2023-10-19T05:32:20;5.70;99.90
38209;DHT22;24016;52.102;11.584;2023-10-19T05:34:46;5.70;99.90
38209;DHT22;24016;52.102;11.584;2023-10-19T05:37:12;5.70;99.90
38209;DHT22;24016;52.102;11.584;2023-10-19T05:39:38;5.70;99.90
38209;DHT22;24016;52.102;11.584;2023-10-19T05:42:04;5.70;99.90
38209;DHT22;24016;52.102;11.584;2023-10-19T05:44:29;5.60;99.90
38209;DHT22;24016;52.102;11.584;2023-10-19T05:46:56;5.60;99.90
38209;DHT22;24016;52.102;11.584;2023-10-19T05:49:22;5.70;99.90
38209;DHT22;24016;52.102;11.584;2023-10-19T05:51:49;5.70;99.90
38209;DHT22;24016;52.102;11.584;2023-10-19T05:54:15;5.70;99.90
38209;DHT22;24016;52.102;11.584;2023-10-19T05:56:42;5.70;99.90
38209;DHT22;24016;52.102;11.584;2023-10-19T05:59:07;5.70;99.90
38209;DHT22;24016;52.102;11.584;2023-10-19T06:01:35;5.70;99.90
38209;DHT22;24016;52.102;11.584;2023-10-19T06:04:02;5.70;99.90
38209;DHT22;24016;52.102;11.584;2023-10-19T06:06:28;5.70;99.90
38209;DHT22;24016;52.102;11.584;2023-10-19T06:08:54;5.70;99.90
38209;DHT22;24016;52.102;11.584;2023-10-19T06:11:21;5.70;99.90
38209;DHT22;24016;52.102;11.584;2023-10-19T06:13:47;5.70;99.90
38209;DHT22;24016;52.102;11.584;2023-10-19T06:16:13;5.70;99.90
38209;DHT22;24016;52.102;11.584;2023-10-19T06:18:39;5.70;99.90
38209;DHT22;24016;52.102;11.584;2023-10-19T06:21:05;5.60;99.90
38209;DHT22;24016;52.102;11.584;2023-10-19T06:23:30;5.70;99.90
38209;DHT22;24016;52.102;11.584;2023-10-19T06:25:59;5.70;99.90
38209;DHT22;24016;52.102;11.584;2023-10-19T06:28:29;5.70;99.90
38209;DHT22;24016;52.102;11.584;2023-10-19T06:30:59;5.60;99.90
38209;DHT22;24016;52.102;11.584;2023-10-19T06:33:25;5.70;99.90
38209;DHT22;24016;52.102;11.584;2023-10-19T06:35:50;5.70;99.90
38209;DHT22;24016;52.102;11.584;2023-10-19T06:38:16;5.70;99.90
38209;DHT22;24016;52.102;11.584;2023-10-19T06:40:41;5.70;99.90
38209;DHT22;24016;52.102;11.584;2023-10-19T06:43:07;5.80;99.90
38209;DHT22;24016;52.102;11.584;2023-10-19T06:45:33;5.70;99.90
38209;DHT22;24016;52.102;11.584;2023-10-19T06:47:59;5.70;99.90
38209;DHT22;24016;52.102;11.584;2023-10-19T06:50:26;5.70;99.90
38209;DHT22;24016;52.102;11.584;2023-10-19T06:52:52;5.70;99.90
38209;DHT22;24016;52.102;11.584;2023-10-19T06:55:22;5.80;99.90
38209;DHT22;24016;52.102;11.584;2023-10-19T06:57:53;5.80;99.90
38209;DHT22;24016;52.102;11.584;2023-10-19T07:00:21;5.80;99.90
38209;DHT22;24016;52.102;11.584;2023-10-19T07:02:50;5.80;99.90
38209;DHT22;24016;52.102;11.584;2023-10-19T07:05:19;5.80;99.90
38209;DHT22;24016;52.102;11.584;2023-10-19T07:07:50;5.80;99.90
38209;DHT22;24016;52.102;11.584;2023-10-19T07:10:18;5.80;99.90
38209;DHT22;24016;52.102;11.584;2023-10-19T07:12:45;5.80;99.90
38209;DHT22;24016;52.102;11.584;2023-10-19T07:15:12;5.80;99.90
38209;DHT22;24016;52.102;11.584;2023-10-19T07:17:41;5.80;99.90
38209;DHT22;24016;52.102;11.584;2023-10-19T07:20:08;5.80;99.90
38209;DHT22;24016;52.102;11.584;2023-10-19T07:22:42;5.80;99.90
38209;DHT22;24016;52.102;11.584;2023-10-19T07:25:10;5.80;99.90
38209;DHT22;24016;52.102;11.584;2023-10-19T07:27:36;5.90;99.90
38209;DHT22;24016;52.102;11.584;2023-10-19T07:30:02;5.90;99.90
38209;DHT22;24016;52.102;11.584;2023-10-19T07:32:31;5.90;99.90
38209;DHT22;24016;52.102;11.584;2023-10-19T07:34:58;5.90;99.90
38209;DHT22;24016;52.102;11.584;2023-10-19T07:37:24;5.90;99.90
38209;DHT22;24016;52.102;11.584;2023-10-19T07:39:51;6.00;99.90
38209;DHT22;24016;52.102;11.584;2023-10-19T07:42:17;6.00;99.90
38209;DHT22;24016;52.102;11.584;2023-10-19T07:44:43;6.00;99.90
38209;DHT22;24016;52.102;11.584;2023-10-19T07:47:11;6.00;99.90
38209;DHT22;24016;52.102;11.584;2023-10-19T07:49:38;6.10;99.90
38209;DHT22;24016;52.102;11.584;2023-10-19T07:52:07;6.10;99.90
38209;DHT22;24016;52.102;11.584;2023-10-19T07:54:34;6.10;99.90
38209;DHT22;24016;52.102;11.584;2023-10-19T07:57:03;6.10;99.90
38209;DHT22;24016;52.102;11.584;2023-10-19T07:59:32;6.10;99.90
38209;DHT22;24016;52.102;11.584;2023-10-19T08:01:58;6.10;99.90
38209;DHT22;24016;52.102;11.584;2023-10-19T08:04:30;6.10;99.90
38209;DHT22;24016;52.102;11.584;2023-10-19T08:06:57;6.20;99.90
38209;DHT22;24016;52.102;11.584;2023-10-19T08:09:23;6.20;99.90
38209;DHT22;24016;52.102;11.584;2023-10-19T08:11:50;6.30;99.90
38209;DHT22;24016;52.102;11.584;2023-10-19T08:14:23;6.30;99.90
38209;DHT22;24016;52.102;11.584;2023-10-19T08:16:50;6.30;99.90
38209;DHT22;24016;52.102;11.584;2023-10-19T08:19:16;6.30;99.90
38209;DHT22;24016;52.102;11.584;2023-10-19T08:21:42;6.30;99.90
38209;DHT22;24016;52.102;11.584;2023-10-19T08:24:08;6.20;99.90
38209;DHT22;24016;52.102;11.584;2023-10-19T08:26:39;6.20;99.90
38209;DHT22;24016;52.102;11.584;2023-10-19T08:29:05;6.20;99.90
38209;DHT22;24016;52.102;11.584;2023-10-19T08:31:39;6.20;99.90
38209;DHT22;24016;52.102;11.584;2023-10-19T08:34:05;6.30;99.90
38209;DHT22;24016;52.102;11.584;2023-10-19T08:36:31;6.30;99.90
38209;DHT22;24016;52.102;11.584;2023-10-19T08:38:56;6.40;99.90
38209;DHT22;24016;52.102;11.584;2023-10-19T08:41:22;6.40;99.90
38209;DHT22;24016;52.102;11.584;2023-10-19T08:43:48;6.50;99.90
38209;DHT22;24016;52.102;11.584;2023-10-19T08:46:15;6.50;99.90
38209;DHT22;24016;52.102;11.584;2023-10-19T08:48:41;6.50;99.90
38209;DHT22;24016;52.102;11.584;2023-10-19T08:51:10;6.50;99.90
38209;DHT22;24016;52.102;11.584;2023-10-19T08:53:39;6.60;99.90
38209;DHT22;24016;52.102;11.584;2023-10-19T08:56:07;6.60;99.90
38209;DHT22;24016;52.102;11.584;2023-10-19T08:58:33;6.60;99.90
38209;DHT22;24016;52.102;11.584;2023-10-19T09:00:59;6.70;99.90
38209;DHT22;24016;52.102;11.584;2023-10-19T09:03:31;6.80;99.90
38209;DHT22;24016;52.102;11.584;2023-10-19T09:06:01;6.90;99.90
38209;DHT22;24016;52.102;11.584;2023-10-19T09:08:27;6.90;99.90
38209;DHT22;24016;52.102;11.584;2023-10-19T09:11:09;6.90;99.90
38209;DHT22;24016;52.102;11.584;2023-10-19T09:13:52;6.80;99.90
38209;DHT22;24016;52.102;11.584;2023-10-19T09:16:21;6.90;99.90
38209;DHT22;24016;52.102;11.584;2023-10-19T09:18:48;6.80;99.90
38209;DHT22;24016;52.102;11.584;2023-10-19T09:21:19;6.80;99.90
38209;DHT22;24016;52.102;11.584;2023-10-19T09:23:51;6.80;99.90
38209;DHT22;24016;52.102;11.584;2023-10-19T09:26:17;6.90;99.90
38209;DHT22;24016;52.102;11.584;2023-10-19T09:28:46;6.90;99.90
38209;DHT22;24016;52.102;11.584;2023-10-19T09:31:16;6.90;99.90
38209;DHT22;24016;52.102;11.584;2023-10-19T09:33:42;6.90;99.90
38209;DHT22;24016;52.102;11.584;2023-10-19T09:36:09;6.80;99.90
38209;DHT22;24016;52.102;11.584;2023-10-19T09:38:51;6.70;99.90
38209;DHT22;24016;52.102;11.584;2023-10-19T09:41:23;6.70;99.90
38209;DHT22;24016;52.102;11.584;2023-10-19T09:43:58;6.70;99.90
38209;DHT22;24016;52.102;11.584;2023-10-19T09:46:31;6.80;99.90
38209;DHT22;24016;52.102;11.584;2023-10-19T09:48:57;6.80;99.90
38209;DHT22;24016;52.102;11.584;2023-10-19T09:51:24;6.90;99.90
38209;DHT22;24016;52.102;11.584;2023-10-19T09:53:59;6.90;99.90
38209;DHT22;24016;52.102;11.584;2023-10-19T09:56:35;7.00;99.90
38209;DHT22;24016;52.102;11.584;2023-10-19T09:59:21;7.00;99.90
38209;DHT22;24016;52.102;11.584;2023-10-19T10:02:04;7.00;99.90
38209;DHT22;24016;52.102;11.584;2023-10-19T10:04:31;7.00;99.90
38209;DHT22;24016;52.102;11.584;2023-10-19T10:06:58;7.00;99.90
38209;DHT22;24016;52.102;11.584;2023-10-19T10:09:29;7.10;99.90
38209;DHT22;24016;52.102;11.584;2023-10-19T10:11:55;7.00;99.90
38209;DHT22;24016;52.102;11.584;2023-10-19T10:14:26;7.10;99.90
38209;DHT22;24016;52.102;11.584;2023-10-19T10:17:04;7.10;99.90
38209;DHT22;24016;52.102;11.584;2023-10-19T10:19:35;7.10;99.90
38209;DHT22;24016;52.102;11.584;2023-10-19T10:22:13;7.20;99.90
38209;DHT22;24016;52.102;11.584;2023-10-19T10:24:44;7.20;99.90
38209;DHT22;24016;52.102;11.584;2023-10-19T10:27:10;7.20;99.90
38209;DHT22;24016;52.102;11.584;2023-10-19T10:29:56;7.20;99.90
38209;DHT22;24016;52.102;11.584;2023-10-19T10:32:46;7.30;99.90
38209;DHT22;24016;52.102;11.584;2023-10-19T10:38:08;7.40;99.90
38209;DHT22;24016;52.102;11.584;2023-10-19T10:40:46;7.30;99.90
38209;DHT22;24016;52.102;11.584;2023-10-19T10:43:13;7.40;99.90
38209;DHT22;24016;52.102;11.584;2023-10-19T10:45:39;7.40;99.90
38209;DHT22;24016;52.102;11.584;2023-10-19T10:48:14;7.40;99.90
38209;DHT22;24016;52.102;11.584;2023-10-19T10:50:40;7.40;99.90
38209;DHT22;24016;52.102;11.584;2023-10-19T10:53:12;7.50;99.90
38209;DHT22;24016;52.102;11.584;2023-10-19T10:55:38;7.50;99.90
38209;DHT22;24016;52.102;11.584;2023-10-19T10:58:04;7.60;99.90
38209;DHT22;24016;52.102;11.584;2023-10-19T11:00:30;7.60;99.90
38209;DHT22;24016;52.102;11.584;2023-10-19T11:03:04;7.60;99.90
38209;DHT22;24016;52.102;11.584;2023-10-19T11:05:32;7.60;99.90
38209;DHT22;24016;52.102;11.584;2023-10-19T11:08:08;7.70;99.90
38209;DHT22;24016;52.102;11.584;2023-10-19T11:10:41;7.70;99.90
38209;DHT22;24016;52.102;11.584;2023-10-19T11:13:12;7.80;99.90
38209;DHT22;24016;52.102;11.584;2023-10-19T11:15:55;7.80;99.90
38209;DHT22;24016;52.102;11.584;2023-10-19T11:18:29;7.70;99.90
38209;DHT22;24016;52.102;11.584;2023-10-19T11:20:55;7.80;99.90
38209;DHT22;24016;52.102;11.584;2023-10-19T11:23:38;7.80;99.90
38209;DHT22;24016;52.102;11.584;2023-10-19T11:26:05;7.70;99.90
38209;DHT22;24016;52.102;11.584;2023-10-19T11:28:31;7.70;99.90
38209;DHT22;24016;52.102;11.584;2023-10-19T11:33:41;7.70;99.90
38209;DHT22;24016;52.102;11.584;2023-10-19T11:36:08;7.60;99.90
38209;DHT22;24016;52.102;11.584;2023-10-19T11:38:33;7.60;99.90
38209;DHT22;24016;52.102;11.584;2023-10-19T11:40:59;7.60;99.90
38209;DHT22;24016;52.102;11.584;2023-10-19T11:43:24;7.70;99.90
38209;DHT22;24016;52.102;11.584;2023-10-19T11:45:50;7.80;99.90
38209;DHT22;24016;52.102;11.584;2023-10-19T11:48:17;7.80;99.90
38209;DHT22;24016;52.102;11.584;2023-10-19T11:50:43;7.80;99.90
38209;DHT22;24016;52.102;11.584;2023-10-19T11:53:08;7.90;99.90
38209;DHT22;24016;52.102;11.584;2023-10-19T11:55:35;7.90;99.90
38209;DHT22;24016;52.102;11.584;2023-10-19T11:58:01;7.80;99.90
38209;DHT22;24016;52.102;11.584;2023-10-19T12:00:26;7.90;99.90
38209;DHT22;24016;52.102;11.584;2023-10-19T12:02:59;7.80;99.90
38209;DHT22;24016;52.102;11.584;2023-10-19T12:05:25;7.80;99.90
38209;DHT22;24016;52.102;11.584;2023-10-19T12:07:50;7.90;99.90
38209;DHT22;24016;52.102;11.584;2023-10-19T12:10:17;8.00;99.90
38209;DHT22;24016;52.102;11.584;2023-10-19T12:12:45;8.00;99.90
38209;DHT22;24016;52.102;11.584;2023-10-19T12:15:11;8.00;99.90
38209;DHT22;24016;52.102;11.584;2023-10-19T12:17:38;8.00;99.90
38209;DHT22;24016;52.102;11.584;2023-10-19T12:20:04;8.00;99.90
38209;DHT22;24016;52.102;11.584;2023-10-19T12:22:32;7.90;99.90
38209;DHT22;24016;52.102;11.584;2023-10-19T12:25:01;8.00;99.90
38209;DHT22;24016;52.102;11.584;2023-10-19T12:27:28;8.00;99.90
38209;DHT22;24016;52.102;11.584;2023-10-19T12:29:54;8.00;99.90
38209;DHT22;24016;52.102;11.584;2023-10-19T12:32:19;8.00;99.90
38209;DHT22;24016;52.102;11.584;2023-10-19T12:34:45;8.00;99.90
38209;DHT22;24016;52.102;11.584;2023-10-19T12:37:11;8.00;99.90
38209;DHT22;24016;52.102;11.584;2023-10-19T12:39:38;8.00;99.90
38209;DHT22;24016;52.102;11.584;2023-10-19T12:42:12;7.90;99.90
38209;DHT22;24016;52.102;11.584;2023-10-19T12:44:39;8.00;99.90
38209;DHT22;24016;52.102;11.584;2023-10-19T12:47:09;8.00;99.90
38209;DHT22;24016;52.102;11.584;2023-10-19T12:49:41;7.90;99.90
38209;DHT22;24016;52.102;11.584;2023-10-19T12:52:08;8.00;99.90
38209;DHT22;24016;52.102;11.584;2023-10-19T12:54:34;8.00;99.90
38209;DHT22;24016;52.102;11.584;2023-10-19T12:57:06;8.00;99.90
38209;DHT22;24016;52.102;11.584;2023-10-19T12:59:36;8.00;99.90
38209;DHT22;24016;52.102;11.584;2023-10-19T13:02:07;8.00;99.90
38209;DHT22;24016;52.102;11.584;2023-10-19T13:04:40;8.10;99.90
38209;DHT22;24016;52.102;11.584;2023-10-19T13:07:07;8.00;99.90
38209;DHT22;24016;52.102;11.584;2023-10-19T13:09:33;8.00;99.90
38209;DHT22;24016;52.102;11.584;2023-10-19T13:12:01;8.00;99.90
38209;DHT22;24016;52.102;11.584;2023-10-19T13:14:27;7.90;99.90
38209;DHT22;24016;52.102;11.584;2023-10-19T13:16:53;7.90;99.90
38209;DHT22;24016;52.102;11.584;2023-10-19T13:19:20;7.80;99.90
38209;DHT22;24016;52.102;11.584;2023-10-19T13:21:50;7.90;99.90
38209;DHT22;24016;52.102;11.584;2023-10-19T13:24:16;7.80;99.90
38209;DHT22;24016;52.102;11.584;2023-10-19T13:26:43;7.80;99.90
38209;DHT22;24016;52.102;11.584;2023-10-19T13:29:12;7.90;99.90
38209;DHT22;24016;52.102;11.584;2023-10-19T13:31:38;7.90;99.90
38209;DHT22;24016;52.102;11.584;2023-10-19T13:34:03;7.90;99.90
38209;DHT22;24016;52.102;11.584;2023-10-19T13:36:36;7.90;99.90
38209;DHT22;24016;52.102;11.584;2023-10-19T13:39:01;7.90;99.90
38209;DHT22;24016;52.102;11.584;2023-10-19T13:41:28;7.90;99.90
38209;DHT22;24016;52.102;11.584;2023-10-19T13:43:54;7.90;99.90
38209;DHT22;24016;52.102;11.584;2023-10-19T13:46:21;7.90;99.90
38209;DHT22;24016;52.102;11.584;2023-10-19T13:48:49;7.90;99.90
38209;DHT22;24016;52.102;11.584;2023-10-19T13:51:26;7.90;99.90
38209;DHT22;24016;52.102;11.584;2023-10-19T13:53:54;7.90;99.90
38209;DHT22;24016;52.102;11.584;2023-10-19T13:56:20;7.90;99.90
38209;DHT22;24016;52.102;11.584;2023-10-19T13:58:45;7.90;99.90
38209;DHT22;24016;52.102;11.584;2023-10-19T14:01:12;7.90;99.90
38209;DHT22;24016;52.102;11.584;2023-10-19T14:03:38;7.80;99.90
38209;DHT22;24016;52.102;11.584;2023-10-19T14:06:04;7.80;99.90
38209;DHT22;24016;52.102;11.584;2023-10-19T14:08:30;7.80;99.90
38209;DHT22;24016;52.102;11.584;2023-10-19T14:11:03;7.80;99.90
38209;DHT22;24016;52.102;11.584;2023-10-19T14:13:28;7.80;99.90
38209;DHT22;24016;52.102;11.584;2023-10-19T14:15:54;7.70;99.90
38209;DHT22;24016;52.102;11.584;2023-10-19T14:18:20;7.70;99.90
38209;DHT22;24016;52.102;11.584;2023-10-19T14:20:47;7.70;99.90
38209;DHT22;24016;52.102;11.584;2023-10-19T14:23:12;7.70;99.90
38209;DHT22;24016;52.102;11.584;2023-10-19T14:25:38;7.70;99.90
38209;DHT22;24016;52.102;11.584;2023-10-19T14:28:08;7.70;99.90
38209;DHT22;24016;52.102;11.584;2023-10-19T14:30:35;7.70;99.90
38209;DHT22;24016;52.102;11.584;2023-10-19T14:33:01;7.60;99.90
38209;DHT22;24016;52.102;11.584;2023-10-19T14:35:27;7.60;99.90
38209;DHT22;24016;52.102;11.584;2023-10-19T14:37:53;7.60;99.90
38209;DHT22;24016;52.102;11.584;2023-10-19T14:40:24;7.60;99.90
38209;DHT22;24016;52.102;11.584;2023-10-19T14:42:51;7.60;99.90
38209;DHT22;24016;52.102;11.584;2023-10-19T14:45:19;7.60;99.90
38209;DHT22;24016;52.102;11.584;2023-10-19T14:47:49;7.60;99.90
38209;DHT22;24016;52.102;11.584;2023-10-19T14:50:17;7.60;99.90
38209;DHT22;24016;52.102;11.584;2023-10-19T14:52:49;7.50;99.90
38209;DHT22;24016;52.102;11.584;2023-10-19T14:55:15;7.50;99.90
38209;DHT22;24016;52.102;11.584;2023-10-19T14:57:42;7.50;99.90
38209;DHT22;24016;52.102;11.584;2023-10-19T15:00:10;7.50;99.90
38209;DHT22;24016;52.102;11.584;2023-10-19T15:02:51;7.50;99.90
38209;DHT22;24016;52.102;11.584;2023-10-19T15:05:17;7.40;99.90
38209;DHT22;24016;52.102;11.584;2023-10-19T15:07:46;7.40;99.90
38209;DHT22;24016;52.102;11.584;2023-10-19T15:10:13;7.50;99.90
38209;DHT22;24016;52.102;11.584;2023-10-19T15:12:39;7.50;99.90
38209;DHT22;24016;52.102;11.584;2023-10-19T15:15:06;7.50;99.90
38209;DHT22;24016;52.102;11.584;2023-10-19T15:17:33;7.50;99.90
38209;DHT22;24016;52.102;11.584;2023-10-19T15:19:58;7.40;99.90
38209;DHT22;24016;52.102;11.584;2023-10-19T15:22:24;7.40;99.90
38209;DHT22;24016;52.102;11.584;2023-10-19T15:24:51;7.40;99.90
38209;DHT22;24016;52.102;11.584;2023-10-19T15:27:17;7.40;99.90
38209;DHT22;24016;52.102;11.584;2023-10-19T15:29:44;7.40;99.90
38209;DHT22;24016;52.102;11.584;2023-10-19T15:32:10;7.40;99.90
38209;DHT22;24016;52.102;11.584;2023-10-19T15:34:35;7.40;99.90
38209;DHT22;24016;52.102;11.584;2023-10-19T15:37:01;7.30;99.90
38209;DHT22;24016;52.102;11.584;2023-10-19T15:39:27;7.30;99.90
38209;DHT22;24016;52.102;11.584;2023-10-19T15:41:53;7.30;99.90
38209;DHT22;24016;52.102;11.584;2023-10-19T15:44:18;7.30;99.90
38209;DHT22;24016;52.102;11.584;2023-10-19T15:46:44;7.30;99.90